createdAt,value
2023-04-09T00:00:43.391Z,6.65
2023-04-09T00:04:25.181Z,5.97
2023-04-09T00:08:07.781Z,6.68
2023-04-09T00:11:49.537Z,5.72
2023-04-09T00:15:32.030Z,6.70
2023-04-09T00:19:13.935Z,6.30
2023-04-09T00:22:56.514Z,7.65
2023-04-09T00:26:38.617Z,6.28
2023-04-09T00:30:20.476Z,6.53
2023-04-09T00:34:02.304Z,7.47
2023-04-09T00:37:44.234Z,7.07
2023-04-09T00:41:25.979Z,6.60
2023-04-09T00:45:08.817Z,7.40
2023-04-09T00:48:51.431Z,8.68
2023-04-09T00:52:33.454Z,7.28
2023-04-09T00:56:17.423Z,7.82
2023-04-09T00:59:59.152Z,6.88
2023-04-09T01:03:41.210Z,8.10
2023-04-09T01:07:38.916Z,8.82
2023-04-09T01:11:24.666Z,8.35
2023-04-09T01:15:10.046Z,8.27
2023-04-09T01:19:09.726Z,9.25
2023-04-09T01:23:24.085Z,9.00
2023-04-09T01:27:07.809Z,9.10
2023-04-09T01:30:52.593Z,10.15
2023-04-09T01:34:36.202Z,9.43
2023-04-09T01:38:20.215Z,10.75
2023-04-09T01:42:03.886Z,10.32
2023-04-09T01:45:46.170Z,10.23
2023-04-09T01:49:29.146Z,9.68
2023-04-09T01:53:11.393Z,10.00
2023-04-09T01:56:53.135Z,10.80
2023-04-09T02:00:48.442Z,10.48
2023-04-09T02:04:34.289Z,10.15
2023-04-09T02:08:21.117Z,10.25
2023-04-09T02:12:10.693Z,10.00
2023-04-09T02:15:52.935Z,9.55
2023-04-09T02:19:45.683Z,10.45
2023-04-09T02:23:27.595Z,10.07
2023-04-09T02:27:09.881Z,11.18
2023-04-09T02:30:51.724Z,9.75
2023-04-09T02:34:33.693Z,10.25
2023-04-09T02:38:16.124Z,9.90
2023-04-09T02:41:58.005Z,10.50
2023-04-09T02:45:39.766Z,10.35
2023-04-09T02:49:21.625Z,10.45
2023-04-09T02:53:03.507Z,11.23
2023-04-09T02:56:45.268Z,11.10
2023-04-09T03:00:27.045Z,11.15
2023-04-09T03:04:08.954Z,10.70
2023-04-09T03:07:51.175Z,10.57
2023-04-09T03:11:32.934Z,10.10
2023-04-09T03:15:14.754Z,11.52
2023-04-09T03:18:56.533Z,11.02
2023-04-09T03:22:39.410Z,11.02
2023-04-09T03:26:21.145Z,10.90
2023-04-09T03:30:03.346Z,10.23
2023-04-09T03:33:45.255Z,11.05
2023-04-09T03:37:27.008Z,10.48
2023-04-09T03:41:08.719Z,11.00
2023-04-09T03:44:53.095Z,10.43
2023-04-09T03:48:34.848Z,11.65
2023-04-09T03:52:16.614Z,11.70
2023-04-09T03:55:58.388Z,10.45
2023-04-09T03:59:40.263Z,11.10
2023-04-09T04:03:22.834Z,10.30
2023-04-09T04:07:04.727Z,10.35
2023-04-09T04:10:46.548Z,11.80
2023-04-09T04:14:28.298Z,11.02
2023-04-09T04:18:10.786Z,11.27
2023-04-09T04:21:52.523Z,12.13
2023-04-09T04:25:34.346Z,10.77
2023-04-09T04:29:16.444Z,12.20
2023-04-09T04:32:58.202Z,11.68
2023-04-09T04:36:40.027Z,12.40
2023-04-09T04:40:21.811Z,11.43
2023-04-09T04:44:03.593Z,10.70
2023-04-09T04:47:45.394Z,11.23
2023-04-09T04:51:27.826Z,10.75
2023-04-09T04:55:09.791Z,11.27
2023-04-09T04:58:51.744Z,10.27
2023-04-09T05:02:33.753Z,10.35
2023-04-09T05:06:15.538Z,9.55
2023-04-09T05:09:57.346Z,11.18
2023-04-09T05:13:39.076Z,10.75
2023-04-09T05:17:20.925Z,10.32
2023-04-09T05:21:02.716Z,9.52
2023-04-09T05:24:44.459Z,10.77
2023-04-09T05:28:26.446Z,9.98
2023-04-09T05:32:09.484Z,10.35
2023-04-09T05:35:51.266Z,10.10
2023-04-09T05:39:33.396Z,11.75
2023-04-09T05:43:15.717Z,10.77
2023-04-09T05:46:57.425Z,11.52
2023-04-09T05:50:53.410Z,11.60
2023-04-09T05:54:36.718Z,9.77
2023-04-09T05:58:19.078Z,9.38
2023-04-09T06:02:00.878Z,10.48
2023-04-09T06:05:42.616Z,11.23
2023-04-09T06:09:24.396Z,11.07
2023-04-09T06:13:06.382Z,11.55
2023-04-09T06:16:48.415Z,12.13
2023-04-09T06:20:30.407Z,13.70
2023-04-09T06:24:12.147Z,16.00
2023-04-09T06:27:53.912Z,16.55
2023-04-09T06:31:35.768Z,17.90
2023-04-09T06:35:17.745Z,17.55
2023-04-09T06:38:59.555Z,17.40
2023-04-09T06:42:41.470Z,18.67
2023-04-09T06:46:23.603Z,17.50
2023-04-09T06:50:06.065Z,17.95
2023-04-09T06:53:48.349Z,17.73
2023-04-09T06:57:30.529Z,18.45
2023-04-09T07:01:12.783Z,19.67
2023-04-09T07:04:54.526Z,19.40
2023-04-09T07:08:36.263Z,18.92
2023-04-09T07:12:31.854Z,20.10
2023-04-09T07:16:13.696Z,19.33
2023-04-09T07:19:55.436Z,22.48
2023-04-09T07:23:37.354Z,20.05
2023-04-09T07:27:20.168Z,18.15
2023-04-09T07:31:05.012Z,20.65
2023-04-09T07:34:46.876Z,21.23
2023-04-09T07:38:30.369Z,18.77
2023-04-09T07:42:13.205Z,22.63
2023-04-09T07:45:54.929Z,21.95
2023-04-09T07:49:37.914Z,22.08
2023-04-09T07:53:19.713Z,21.02
2023-04-09T07:57:02.115Z,22.55
2023-04-09T08:00:43.872Z,27.05
2023-04-09T08:04:26.050Z,22.67
2023-04-09T08:08:07.902Z,23.35
2023-04-09T08:11:50.382Z,22.23
2023-04-09T08:15:32.725Z,25.70
2023-04-09T08:19:17.272Z,24.33
2023-04-09T08:22:59.231Z,21.80
2023-04-09T08:26:41.877Z,21.60
2023-04-09T08:30:23.658Z,22.58
2023-04-09T08:34:06.705Z,22.60
2023-04-09T08:37:49.107Z,21.42
2023-04-09T08:41:31.296Z,19.98
2023-04-09T08:45:13.817Z,22.65
2023-04-09T08:48:56.248Z,20.65
2023-04-09T08:52:39.058Z,19.40
2023-04-09T08:56:21.998Z,20.10
2023-04-09T09:00:04.937Z,21.13
2023-04-09T09:04:05.643Z,20.15
2023-04-09T09:07:54.745Z,19.00
2023-04-09T09:11:38.624Z,20.15
2023-04-09T09:15:30.981Z,18.25
2023-04-09T09:19:33.628Z,18.98
2023-04-09T09:23:15.437Z,18.08
2023-04-09T09:26:58.824Z,19.70
2023-04-09T09:30:41.013Z,16.98
2023-04-09T09:34:23.984Z,18.77
2023-04-09T09:38:05.762Z,16.80
2023-04-09T09:41:48.784Z,17.08
2023-04-09T09:45:31.372Z,16.27
2023-04-09T09:49:13.185Z,16.27
2023-04-09T09:53:04.730Z,15.43
2023-04-09T09:56:47.452Z,14.80
2023-04-09T10:00:31.862Z,14.90
2023-04-09T10:04:16.302Z,14.75
2023-04-09T10:08:00.217Z,13.73
2023-04-09T10:11:47.937Z,14.00
2023-04-09T10:15:30.136Z,14.15
2023-04-09T10:19:15.167Z,11.77
2023-04-09T10:22:58.749Z,13.43
2023-04-09T10:26:42.034Z,12.32
2023-04-09T10:30:34.827Z,11.82
2023-04-09T10:34:19.514Z,11.00
2023-04-09T10:38:01.303Z,10.73
2023-04-09T10:41:44.568Z,11.23
2023-04-09T10:45:40.514Z,9.32
2023-04-09T10:53:05.063Z,9.75
2023-04-09T10:57:11.620Z,9.65
2023-04-09T11:00:54.912Z,8.57
2023-04-09T11:04:45.971Z,7.50
2023-04-09T11:08:34.946Z,7.32
2023-04-09T11:12:16.798Z,9.00
2023-04-09T11:16:00.215Z,8.18
2023-04-09T11:19:42.165Z,7.65
2023-04-09T11:23:24.604Z,7.22
2023-04-09T11:27:06.357Z,6.88
2023-04-09T11:30:51.268Z,6.72
2023-04-09T11:34:33.163Z,5.60
2023-04-09T11:38:14.943Z,6.07
2023-04-09T11:41:57.860Z,6.40
2023-04-09T11:45:39.610Z,6.28
2023-04-09T11:49:22.068Z,6.40
2023-04-09T11:53:19.769Z,6.88
2023-04-09T11:57:03.811Z,6.55
2023-04-09T12:00:46.052Z,6.35
2023-04-09T12:04:27.868Z,5.35
2023-04-09T12:08:10.006Z,4.90
2023-04-09T12:11:52.193Z,5.95
2023-04-09T12:15:41.940Z,5.40
2023-04-09T12:19:25.772Z,4.80
2023-04-09T12:23:08.322Z,5.28
2023-04-09T12:26:51.021Z,5.95
2023-04-09T12:30:33.771Z,4.45
2023-04-09T12:34:15.523Z,5.25
2023-04-09T12:37:57.415Z,5.47
2023-04-09T12:41:39.203Z,3.92
2023-04-09T12:45:21.417Z,5.80
2023-04-09T12:49:03.158Z,5.78
2023-04-09T12:52:45.878Z,4.63
2023-04-09T12:56:29.837Z,5.40
2023-04-09T13:00:12.777Z,5.13
2023-04-09T13:03:54.834Z,5.03
2023-04-09T13:07:36.865Z,5.03
2023-04-09T13:11:18.611Z,4.72
2023-04-09T13:15:00.634Z,5.20
2023-04-09T13:18:42.367Z,4.70
2023-04-09T13:22:24.140Z,4.68
2023-04-09T13:26:06.592Z,4.80
2023-04-09T13:29:48.352Z,4.93
2023-04-09T13:33:30.451Z,4.60
2023-04-09T13:37:12.267Z,4.00
2023-04-09T13:40:54.216Z,4.28
2023-04-09T13:44:36.065Z,3.60
2023-04-09T13:48:17.843Z,2.35
2023-04-09T13:51:59.609Z,3.30
2023-04-09T13:55:41.565Z,3.67
2023-04-09T13:59:23.320Z,3.55
2023-04-09T14:03:05.117Z,3.72
2023-04-09T14:06:47.123Z,3.15
2023-04-09T14:10:28.864Z,2.80
2023-04-09T14:14:10.939Z,3.20
2023-04-09T14:17:52.718Z,2.95
2023-04-09T14:21:34.541Z,3.20
2023-04-09T14:25:16.837Z,3.53
2023-04-09T14:28:58.582Z,3.22
2023-04-09T14:32:40.428Z,3.35
2023-04-09T14:36:22.258Z,4.35
2023-04-09T14:40:04.156Z,3.55
2023-04-09T14:43:45.910Z,3.90
2023-04-09T14:47:27.755Z,3.65
2023-04-09T14:51:10.912Z,4.05
2023-04-09T14:54:52.746Z,4.57
2023-04-09T14:58:34.547Z,5.20
2023-04-09T15:02:16.584Z,3.95
2023-04-09T15:05:59.331Z,5.35
2023-04-09T15:09:41.590Z,4.53
2023-04-09T15:13:24.219Z,5.10
2023-04-09T15:17:06.058Z,5.13
2023-04-09T15:20:47.993Z,5.28
2023-04-09T15:24:29.770Z,5.20
2023-04-09T15:28:11.582Z,5.53
2023-04-09T15:31:53.488Z,5.15
2023-04-09T15:35:36.289Z,5.72
2023-04-09T15:39:18.698Z,4.82
2023-04-09T15:43:00.448Z,5.05
2023-04-09T15:46:42.203Z,5.55
2023-04-09T15:50:26.562Z,5.65
2023-04-09T15:54:08.372Z,6.00
2023-04-09T15:57:50.128Z,4.75
2023-04-09T16:01:32.197Z,5.57
2023-04-09T16:05:14.074Z,5.20
2023-04-09T16:08:56.965Z,5.40
2023-04-09T16:12:38.928Z,4.88
2023-04-09T16:16:20.770Z,4.28
2023-04-09T16:20:03.191Z,4.70
2023-04-09T16:23:45.033Z,5.25
2023-04-09T16:27:26.800Z,6.00
2023-04-09T16:31:08.497Z,4.63
2023-04-09T16:34:50.548Z,5.07
2023-04-09T16:38:32.307Z,5.30
2023-04-09T16:42:14.069Z,4.95
2023-04-09T16:45:55.858Z,5.40
2023-04-09T16:49:37.573Z,5.80
2023-04-09T16:53:19.381Z,5.88
2023-04-09T16:57:01.855Z,6.45
2023-04-09T17:00:45.458Z,6.70
2023-04-09T17:04:28.800Z,7.47
2023-04-09T17:08:10.832Z,6.03
2023-04-09T17:11:56.509Z,7.60
2023-04-09T17:15:38.294Z,7.85
2023-04-09T17:19:20.020Z,6.35
2023-04-09T17:23:01.767Z,7.15
2023-04-09T17:26:43.491Z,7.25
2023-04-09T17:30:25.798Z,6.47
2023-04-09T17:34:08.566Z,7.18
2023-04-09T17:37:50.938Z,7.15
2023-04-09T17:41:32.640Z,6.50
2023-04-09T17:45:14.795Z,7.85
2023-04-09T17:48:56.582Z,8.75
2023-04-09T17:52:38.778Z,7.80
2023-04-09T17:56:22.811Z,7.95
2023-04-09T18:00:05.118Z,7.78
2023-04-09T18:03:48.442Z,8.40
2023-04-09T18:07:33.250Z,8.85
2023-04-09T18:11:18.051Z,8.68
2023-04-09T18:14:59.798Z,8.07
2023-04-09T18:18:41.530Z,9.40
2023-04-09T18:22:23.785Z,9.48
2023-04-09T18:26:06.504Z,9.48
2023-04-09T18:29:51.125Z,8.68
2023-04-09T18:33:32.907Z,8.60
2023-04-09T18:37:15.456Z,9.00
2023-04-09T18:40:57.686Z,9.45
2023-04-09T18:44:40.987Z,8.85
2023-04-09T18:48:23.237Z,10.20
2023-04-09T18:52:09.290Z,9.77
2023-04-09T18:55:51.124Z,11.10
2023-04-09T18:59:36.163Z,9.75
2023-04-09T19:03:19.244Z,10.98
2023-04-09T19:07:01.461Z,10.93
2023-04-09T19:10:43.292Z,11.13
2023-04-09T19:14:26.066Z,10.55
2023-04-09T19:18:07.786Z,10.85
2023-04-09T19:21:49.531Z,10.75
2023-04-09T19:25:31.379Z,10.98
2023-04-09T19:29:13.093Z,10.90
2023-04-09T19:32:54.946Z,12.13
2023-04-09T19:36:36.945Z,10.82
2023-04-09T19:40:18.671Z,12.10
2023-04-09T19:44:01.467Z,11.73
2023-04-09T19:47:43.281Z,12.30
2023-04-09T19:51:25.966Z,12.00
2023-04-09T19:55:08.476Z,12.45
2023-04-09T19:58:50.217Z,12.35
2023-04-09T20:02:32.567Z,12.63
2023-04-09T20:06:14.505Z,13.52
2023-04-09T20:09:56.337Z,12.43
2023-04-09T20:13:38.134Z,13.45
2023-04-09T20:17:21.284Z,10.95
2023-04-09T20:21:03.265Z,13.00
2023-04-09T20:24:45.054Z,13.80
2023-04-09T20:28:27.747Z,13.95
2023-04-09T20:32:09.561Z,14.02
2023-04-09T20:35:52.346Z,13.82
2023-04-09T20:39:34.147Z,13.40
2023-04-09T20:43:15.907Z,14.02
2023-04-09T20:46:57.710Z,14.60
2023-04-09T20:50:39.457Z,13.85
2023-04-09T20:54:23.133Z,15.48
2023-04-09T20:58:05.801Z,15.82
2023-04-09T21:01:48.318Z,15.27
2023-04-09T21:05:30.341Z,15.85
2023-04-09T21:09:12.104Z,15.43
2023-04-09T21:12:53.824Z,15.60
2023-04-09T21:16:36.568Z,14.60
2023-04-09T21:20:19.413Z,14.73
2023-04-09T21:24:01.357Z,14.93
2023-04-09T21:27:43.237Z,14.55
2023-04-09T21:31:25.122Z,14.48
2023-04-09T21:35:07.264Z,14.60
2023-04-09T21:38:49.015Z,14.38
2023-04-09T21:42:33.537Z,14.18
2023-04-09T21:46:15.437Z,13.98
2023-04-09T21:49:57.622Z,13.88
2023-04-09T21:53:39.394Z,14.60
2023-04-09T21:57:21.225Z,14.70
2023-04-09T22:01:03.187Z,13.90
2023-04-09T22:04:45.006Z,13.00
2023-04-09T22:08:26.759Z,15.18
2023-04-09T22:12:08.553Z,15.10
2023-04-09T22:15:50.495Z,15.43
2023-04-09T22:19:33.030Z,16.38
2023-04-09T22:23:14.783Z,16.58
2023-04-09T22:27:01.440Z,15.65
2023-04-09T22:30:43.298Z,18.38
2023-04-09T22:34:25.123Z,17.83
2023-04-09T22:38:07.098Z,17.02
2023-04-09T22:41:48.926Z,16.98
2023-04-09T22:45:32.210Z,17.20
2023-04-09T22:49:13.980Z,17.55
2023-04-09T22:52:55.839Z,17.65
2023-04-09T22:56:37.751Z,17.05
2023-04-09T23:00:19.577Z,16.85
2023-04-09T23:04:01.567Z,16.17
2023-04-09T23:07:45.009Z,17.35
2023-04-09T23:11:27.353Z,16.85
2023-04-09T23:15:09.492Z,14.98
2023-04-09T23:18:51.425Z,15.52
2023-04-09T23:22:33.465Z,16.90
2023-04-09T23:26:15.466Z,15.90
2023-04-09T23:29:57.349Z,16.73
2023-04-09T23:33:39.129Z,16.90
2023-04-09T23:37:20.868Z,17.08
2023-04-09T23:41:02.602Z,16.58
2023-04-09T23:44:44.390Z,16.75
2023-04-09T23:48:26.323Z,14.23
2023-04-09T23:52:08.093Z,13.02
2023-04-09T23:55:50.986Z,13.48
2023-04-09T23:59:35.445Z,11.27
